Time;durP1;ratioP1;P1;durP2;ratioP2;P2;SDS_P1;SDS_P2;PMS_P1;PMS_P2;Temp;Humidity;BMP_temperature;BMP_pressure;BME280_temperature;BME280_humidity;BME280_pressure;Samples;Min_cycle;Max_cycle;Signal;HPM_P1;HPM_P2
2022/07/20 00:00:31;;;;;;;20.83;9.55;;;;;;;26.46;32.27;101062.47;5014746;28;20045;-60
2022/07/20 00:02:56;;;;;;;20.30;9.43;;;;;;;26.43;32.66;101060.50;4997163;28;20030;-61
2022/07/20 00:05:22;;;;;;;18.52;9.00;;;;;;;26.36;32.71;101066.16;5014646;28;20056;-59
2022/07/20 00:07:47;;;;;;;17.15;8.77;;;;;;;26.27;32.87;101073.09;5014927;28;20241;-60
2022/07/20 00:12:56;;;;;;;18.60;9.10;;;;;;;26.22;33.25;101064.19;5014676;28;20053;-60
2022/07/20 00:15:21;;;;;;;19.83;9.40;;;;;;;26.20;33.17;101061.78;5014366;28;20021;-60
2022/07/20 00:17:47;;;;;;;21.50;9.95;;;;;;;26.15;33.27;101062.19;4996413;28;20026;-60
2022/07/20 00:20:12;;;;;;;17.70;9.32;;;;;;;26.09;33.74;101056.13;5014395;28;20033;-60
2022/07/20 00:22:37;;;;;;;19.05;9.82;;;;;;;26.06;33.69;101061.78;5014475;28;20169;-59
2022/07/20 00:25:03;;;;;;;20.13;9.13;;;;;;;26.00;34.03;101061.41;5014299;28;20030;-59
2022/07/20 00:27:29;;;;;;;19.02;9.10;;;;;;;25.84;33.78;101056.16;5014252;28;20144;-59
2022/07/20 00:29:54;;;;;;;20.10;9.52;;;;;;;25.81;34.04;101060.63;5014466;28;20037;-59
2022/07/20 00:32:19;;;;;;;19.73;9.20;;;;;;;25.76;34.58;101071.56;5014410;28;20474;-59
2022/07/20 00:34:45;;;;;;;17.75;8.98;;;;;;;25.63;35.17;101063.44;5014325;28;20458;-59
2022/07/20 00:37:10;;;;;;;17.25;8.80;;;;;;;25.57;35.25;101067.91;5014231;28;20036;-59
2022/07/20 00:39:35;;;;;;;24.30;9.43;;;;;;;25.49;35.09;101055.78;5014149;28;20026;-59
2022/07/20 00:42:01;;;;;;;19.67;9.10;;;;;;;25.46;35.45;101059.41;5014072;28;20076;-59
2022/07/20 00:44:26;;;;;;;18.85;9.43;;;;;;;25.33;36.07;101056.13;5014021;28;20038;-59
2022/07/20 00:46:54;;;;;;;19.75;9.20;;;;;;;25.24;35.90;101058.56;5013757;28;20084;-59
2022/07/20 00:49:19;;;;;;;18.88;9.55;;;;;;;25.19;36.53;101062.59;5014007;28;20022;-59
2022/07/20 00:51:45;;;;;;;19.60;9.27;;;;;;;25.11;36.70;101052.47;5012885;28;20030;-59
2022/07/20 00:54:11;;;;;;;18.15;8.93;;;;;;;25.03;36.47;101059.34;5013741;28;20382;-59
2022/07/20 00:56:37;;;;;;;18.30;9.60;;;;;;;25.01;36.68;101056.09;5013702;28;20109;-59
2022/07/20 00:59:05;;;;;;;19.60;9.23;;;;;;;25.05;36.36;101071.06;5013545;28;20515;-59
2022/07/20 01:01:31;;;;;;;17.85;9.27;;;;;;;25.07;35.78;101111.91;5013517;28;20044;-59
2022/07/20 01:03:57;;;;;;;20.48;9.52;;;;;;;25.26;34.95;101107.09;5013585;28;20026;-59
2022/07/20 01:06:23;;;;;;;21.52;9.82;;;;;;;25.06;35.47;101056.50;5013710;28;20459;-59
2022/07/20 01:08:49;;;;;;;18.85;9.07;;;;;;;25.08;35.84;101058.94;5013384;28;20045;-59
2022/07/20 01:11:14;;;;;;;17.77;8.90;;;;;;;25.07;35.80;101063.78;4995753;28;20036;-59
2022/07/20 01:13:40;;;;;;;18.50;8.93;;;;;;;25.06;35.87;101076.31;5013128;28;20397;-59
2022/07/20 01:16:05;;;;;;;20.15;9.38;;;;;;;25.02;35.72;101069.03;5013477;28;20547;-59
2022/07/20 01:18:31;;;;;;;16.70;8.88;;;;;;;24.95;36.52;101077.50;5013472;28;20407;-59
2022/07/20 01:21:22;;;;;;;18.42;9.05;;;;;;;24.96;35.60;101079.94;5013059;28;20604;-59
2022/07/20 01:23:47;;;;;;;19.65;9.18;;;;;;;24.96;36.26;101079.94;5010042;28;20140;-59
2022/07/20 01:26:17;;;;;;;18.30;9.80;;;;;;;24.93;36.40;101094.91;5012901;28;20026;-59
2022/07/20 01:28:42;;;;;;;18.83;9.30;;;;;;;24.89;36.45;101105.38;5012893;28;20065;-59
2022/07/20 01:31:07;;;;;;;20.27;9.50;;;;;;;24.83;36.32;101090.03;5012907;28;20117;-59
2022/07/20 01:33:32;;;;;;;20.70;9.30;;;;;;;24.81;36.37;101087.56;5012729;28;20026;-59
2022/07/20 01:35:58;;;;;;;18.38;9.40;;;;;;;24.73;36.61;101100.91;5012883;28;20091;-59
2022/07/20 01:38:23;;;;;;;18.40;9.20;;;;;;;24.66;37.27;101092.34;5012718;28;20029;-59
2022/07/20 01:40:48;;;;;;;21.20;9.57;;;;;;;24.60;36.76;101105.25;5012521;28;20514;-59
2022/07/20 01:43:13;;;;;;;19.80;9.70;;;;;;;24.46;37.32;101091.84;5012652;28;20110;-59
2022/07/20 01:45:39;;;;;;;19.25;10.27;;;;;;;24.40;37.20;101090.63;5012888;28;20409;-59
2022/07/20 01:48:05;;;;;;;17.40;9.30;;;;;;;24.37;37.39;101092.19;5012693;28;20026;-59
2022/07/20 01:50:30;;;;;;;20.48;9.80;;;;;;;24.27;37.54;101088.13;5012906;28;20030;-59
2022/07/20 01:52:56;;;;;;;17.50;9.50;;;;;;;24.12;38.97;101092.88;5012413;28;20228;-59
2022/07/20 01:55:21;;;;;;;17.90;9.65;;;;;;;24.02;39.29;101085.13;5012468;28;20025;-59
2022/07/20 01:57:46;;;;;;;20.02;9.90;;;;;;;23.90;39.37;101072.13;5012786;28;20034;-59
2022/07/20 02:00:12;;;;;;;17.63;9.25;;;;;;;23.90;39.18;101074.16;5012541;28;20062;-59
2022/07/20 02:02:38;;;;;;;17.67;9.13;;;;;;;23.88;39.23;101085.81;5012230;28;20128;-59
2022/07/20 02:05:04;;;;;;;21.48;9.70;;;;;;;23.84;39.00;101071.66;5012193;28;20041;-59
2022/07/20 02:07:29;;;;;;;21.48;9.65;;;;;;;23.83;39.27;101072.06;5012227;28;20132;-59
2022/07/20 02:09:55;;;;;;;19.27;9.85;;;;;;;23.81;39.21;101078.09;5012353;28;20037;-59
2022/07/20 02:12:20;;;;;;;20.75;9.82;;;;;;;23.74;39.72;101071.59;5012392;28;20485;-59
2022/07/20 02:14:46;;;;;;;19.45;9.65;;;;;;;23.73;39.23;101076.41;5012109;28;20058;-59
2022/07/20 02:17:11;;;;;;;20.75;9.73;;;;;;;23.60;40.12;101083.59;5012464;28;20421;-59
2022/07/20 02:19:36;;;;;;;17.52;9.25;;;;;;;23.59;39.72;101082.78;5011793;28;20076;-59
2022/07/20 02:22:01;;;;;;;18.98;9.52;;;;;;;23.53;39.92;101079.50;5011900;28;20040;-59
2022/07/20 02:24:27;;;;;;;18.60;9.30;;;;;;;23.49;40.69;101084.31;5011747;28;20505;-59
2022/07/20 02:26:52;;;;;;;25.02;9.50;;;;;;;23.60;39.38;101103.38;5011919;28;20399;-59
2022/07/20 02:29:17;;;;;;;19.52;9.50;;;;;;;23.66;39.24;101110.25;5011970;28;20107;-59
2022/07/20 02:31:43;;;;;;;20.08;9.60;;;;;;;23.74;38.95;101105.50;4994167;28;20022;-60
2022/07/20 02:34:08;;;;;;;19.77;9.90;;;;;;;23.73;38.71;101107.50;5011823;28;20030;-59
2022/07/20 02:36:33;;;;;;;19.35;9.50;;;;;;;23.77;38.79;101101.88;4994274;28;20044;-59
2022/07/20 02:38:59;;;;;;;18.80;9.77;;;;;;;23.76;38.69;101101.06;5011794;28;20370;-59
2022/07/20 02:41:24;;;;;;;20.60;9.73;;;;;;;23.78;39.11;101112.78;5011680;28;20037;-59
2022/07/20 02:43:49;;;;;;;18.40;9.50;;;;;;;23.75;38.99;101113.56;5012006;28;20029;-59
2022/07/20 02:46:15;;;;;;;21.75;10.70;;;;;;;23.75;39.42;101105.09;5011768;28;20048;-59
2022/07/20 02:48:40;;;;;;;22.17;10.77;;;;;;;23.74;39.78;101113.97;5011645;28;20079;-59
2022/07/20 02:51:05;;;;;;;20.90;10.90;;;;;;;23.70;40.16;101108.28;5011759;28;20026;-59
2022/07/20 02:53:31;;;;;;;21.75;11.00;;;;;;;23.64;40.56;101110.66;5011506;28;20402;-60
2022/07/20 02:55:56;;;;;;;20.30;11.10;;;;;;;23.61;40.90;101119.91;5011509;28;20334;-59
2022/07/20 02:58:21;;;;;;;20.77;11.80;;;;;;;23.59;41.27;101125.13;5011652;28;20049;-59
2022/07/20 03:00:47;;;;;;;20.98;12.65;;;;;;;23.51;41.69;101117.78;5011553;28;20482;-59
2022/07/20 03:03:12;;;;;;;22.08;12.15;;;;;;;23.46;42.41;101123.81;5011505;28;20114;-59
2022/07/20 03:05:38;;;;;;;22.10;12.23;;;;;;;23.42;42.82;101120.13;5011496;28;20449;-59
2022/07/20 03:08:07;;;;;;;22.20;12.43;;;;;;;23.32;43.24;101124.47;5011445;28;20389;-59
2022/07/20 03:10:33;;;;;;;20.67;12.55;;;;;;;23.30;43.55;101122.03;5011618;28;20029;-59
2022/07/20 03:12:58;;;;;;;21.80;12.93;;;;;;;23.26;44.11;101123.19;5011520;28;20492;-59
2022/07/20 03:15:24;;;;;;;23.77;13.82;;;;;;;23.23;44.44;101123.97;5014416;28;20458;-59
2022/07/20 03:17:52;;;;;;;22.15;13.13;;;;;;;23.17;44.77;101143.25;5015108;28;20037;-59
2022/07/20 03:20:29;;;;;;;22.55;14.18;;;;;;;23.12;45.47;101147.22;5015702;28;20066;-59
2022/07/20 03:22:55;;;;;;;26.55;15.45;;;;;;;23.09;46.56;101133.06;5015368;28;20092;-59
2022/07/20 03:25:21;;;;;;;24.33;15.20;;;;;;;23.03;46.81;101130.59;5015507;28;20450;-59
2022/07/20 03:27:47;;;;;;;23.42;15.32;;;;;;;23.01;47.08;101135.00;5015213;28;20030;-59
2022/07/20 03:30:13;;;;;;;25.80;16.63;;;;;;;23.00;47.77;101142.63;5015066;28;20029;-59
2022/07/20 03:32:39;;;;;;;25.17;16.25;;;;;;;22.98;48.30;101142.22;5014837;28;20030;-59
2022/07/20 03:35:05;;;;;;;31.83;17.77;;;;;;;22.96;48.67;101147.44;5014813;28;20029;-59
2022/07/20 03:37:30;;;;;;;28.80;18.25;;;;;;;22.95;49.50;101154.28;5014600;28;20136;-59
2022/07/20 03:39:55;;;;;;;29.08;18.50;;;;;;;;;;5014383;28;20053;-59
2022/07/20 03:42:21;;;;;;;27.55;19.42;;;;;;;22.83;50.84;101165.78;5014486;28;20116;-59
2022/07/20 03:44:46;;;;;;;29.95;19.20;;;;;;;22.80;51.56;101175.03;5014819;28;20107;-59
2022/07/20 03:47:12;;;;;;;29.25;19.55;;;;;;;22.77;51.69;101173.78;5014627;28;20022;-59
2022/07/20 03:49:37;;;;;;;28.15;21.13;;;;;;;22.70;52.81;101180.16;5014558;28;20061;-59
2022/07/20 03:52:03;;;;;;;31.65;20.52;;;;;;;22.61;53.75;101192.88;5014487;28;20478;-59
2022/07/20 03:54:28;;;;;;;32.03;21.92;;;;;;;22.54;54.03;101193.59;5014563;28;20104;-59
2022/07/20 03:56:53;;;;;;;29.95;23.60;;;;;;;22.46;55.61;101200.31;5014525;28;20117;-60
2022/07/20 03:59:19;;;;;;;32.10;22.50;;;;;;;22.45;56.12;101202.34;5014587;28;20053;-59
2022/07/20 04:01:44;;;;;;;33.72;23.83;;;;;;;22.50;56.11;101204.81;5014268;28;20053;-60
2022/07/20 04:04:09;;;;;;;32.97;25.33;;;;;;;22.51;56.89;101212.09;5014507;28;20030;-60
2022/07/20 04:06:35;;;;;;;31.55;25.35;;;;;;;22.54;56.74;101211.34;5014232;28;20367;-59
2022/07/20 04:09:01;;;;;;;34.35;26.73;;;;;;;22.57;57.93;101226.69;5014448;28;20029;-59
2022/07/20 04:11:27;;;;;;;35.88;26.77;;;;;;;22.56;58.59;101231.50;5014355;28;20055;-59
2022/07/20 04:13:52;;;;;;;36.17;29.25;;;;;;;22.58;59.40;101242.41;5014219;28;20064;-59
2022/07/20 04:16:18;;;;;;;39.63;29.85;;;;;;;22.56;59.83;101239.97;5014232;28;20038;-59
2022/07/20 04:18:43;;;;;;;36.80;28.65;;;;;;;22.54;60.19;101235.88;5014320;28;20492;-60
2022/07/20 04:21:08;;;;;;;38.15;29.05;;;;;;;22.63;60.14;101236.41;5014166;28;20022;-59
2022/07/20 04:23:34;;;;;;;37.40;29.88;;;;;;;22.64;60.56;101237.25;5013904;28;20037;-59
2022/07/20 04:25:59;;;;;;;36.83;29.92;;;;;;;22.64;60.64;101251.34;5012743;28;20079;-59
2022/07/20 04:28:25;;;;;;;38.88;29.20;;;;;;;22.64;60.92;101240.88;5013921;28;20041;-59
2022/07/20 04:30:50;;;;;;;37.13;30.30;;;;;;;22.69;60.76;101251.84;5013834;28;20025;-59
2022/07/20 04:33:18;;;;;;;36.90;30.30;;;;;;;22.70;60.72;101258.28;5013694;28;20034;-59
2022/07/20 04:35:44;;;;;;;38.50;30.50;;;;;;;22.72;60.69;101253.09;5013597;28;20030;-59
2022/07/20 04:38:09;;;;;;;35.30;28.63;;;;;;;22.80;60.27;101248.38;5013572;28;20030;-59
2022/07/20 04:40:34;;;;;;;36.03;29.30;;;;;;;;;;5013773;28;20029;-59
2022/07/20 04:42:59;;;;;;;34.40;29.13;;;;;;;23.03;59.79;101251.09;5013419;28;20041;-59
2022/07/20 04:45:25;;;;;;;34.22;28.27;;;;;;;23.10;59.54;101254.00;5013579;28;20033;-59
2022/07/20 04:47:50;;;;;;;37.35;29.02;;;;;;;23.25;58.97;101257.03;5013519;28;20099;-59
2022/07/20 04:50:15;;;;;;;38.90;28.58;;;;;;;23.32;58.68;101263.59;5013493;28;20398;-60
2022/07/20 04:52:41;;;;;;;35.13;28.42;;;;;;;23.30;58.76;101268.00;4995763;28;20037;-59
2022/07/20 04:55:07;;;;;;;35.72;28.88;;;;;;;23.39;58.66;101271.34;5013313;28;20026;-59
2022/07/20 04:57:32;;;;;;;36.63;28.88;;;;;;;23.43;58.54;101277.81;5013412;28;20440;-59
2022/07/20 04:59:58;;;;;;;34.85;28.98;;;;;;;23.47;58.21;101278.69;5013223;28;20037;-59
2022/07/20 05:02:23;;;;;;;37.05;28.42;;;;;;;23.49;58.19;101287.59;5013160;28;20054;-61
2022/07/20 05:04:49;;;;;;;35.88;28.48;;;;;;;23.49;58.50;101284.78;5013193;28;20109;-60
2022/07/20 05:07:14;;;;;;;33.63;27.80;;;;;;;23.48;58.50;101290.78;5013121;28;20109;-60
2022/07/20 05:09:40;;;;;;;33.55;27.50;;;;;;;23.46;58.11;101287.56;5013164;28;20032;-59
2022/07/20 05:12:06;;;;;;;34.45;27.20;;;;;;;23.47;57.85;101287.16;5013298;28;20395;-59
2022/07/20 05:14:31;;;;;;;32.55;27.08;;;;;;;23.45;58.49;101283.91;5013147;28;20315;-59
2022/07/20 05:16:57;;;;;;;34.90;26.20;;;;;;;23.48;57.97;101287.97;4995361;28;20387;-59
2022/07/20 05:19:22;;;;;;;34.72;27.45;;;;;;;23.46;57.77;101277.06;5013225;28;20542;-60
2022/07/20 05:21:47;;;;;;;34.20;28.67;;;;;;;23.45;57.98;101275.44;5012867;28;20451;-59
2022/07/20 05:24:12;;;;;;;34.00;26.65;;;;;;;23.50;57.65;101271.47;5013156;28;20026;-59
2022/07/20 05:26:38;;;;;;;35.83;27.55;;;;;;;23.56;57.58;101274.75;4995187;28;20578;-59
2022/07/20 05:29:03;;;;;;;34.13;26.35;;;;;;;23.55;57.91;101276.78;5012791;28;20038;-59
2022/07/20 05:31:28;;;;;;;33.55;27.63;;;;;;;23.61;57.41;101280.06;5012955;28;20033;-59
2022/07/20 05:33:54;;;;;;;36.17;27.83;;;;;;;23.62;57.47;101288.16;5012590;28;20022;-60
2022/07/20 05:36:19;;;;;;;34.67;27.25;;;;;;;23.68;57.67;101283.78;5012471;28;20438;-59
2022/07/20 05:38:44;;;;;;;32.85;26.75;;;;;;;23.74;57.41;101297.56;5012239;28;20140;-60
2022/07/20 05:41:10;;;;;;;32.95;26.60;;;;;;;23.78;57.03;101316.16;5012386;28;20113;-59
2022/07/20 05:43:35;;;;;;;32.25;26.23;;;;;;;23.83;56.81;101327.13;5012529;28;20129;-60
2022/07/20 05:46:01;;;;;;;34.25;26.88;;;;;;;23.79;57.21;101323.44;5012443;28;20025;-59
2022/07/20 05:48:27;;;;;;;34.88;26.13;;;;;;;23.76;56.91;101329.88;5012253;28;20034;-59
2022/07/20 05:50:52;;;;;;;31.80;25.80;;;;;;;23.72;57.08;101328.19;5012210;28;20123;-59
2022/07/20 05:53:17;;;;;;;31.20;25.58;;;;;;;23.77;56.63;101344.78;5012683;28;20033;-59
2022/07/20 05:55:43;;;;;;;35.35;25.15;;;;;;;23.81;55.86;101346.44;5012303;28;20037;-59
2022/07/20 05:58:09;;;;;;;30.83;23.33;;;;;;;23.78;56.24;101357.72;5012280;28;20157;-60
2022/07/20 06:00:36;;;;;;;33.38;23.20;;;;;;;23.76;56.16;101360.94;5012556;28;20079;-60
2022/07/20 06:03:03;;;;;;;30.90;24.33;;;;;;;23.81;56.09;101368.25;5011978;28;20454;-59
2022/07/20 06:05:28;;;;;;;30.92;23.77;;;;;;;23.81;56.12;101360.59;5011833;28;20061;-59
2022/07/20 06:07:55;;;;;;;29.85;22.63;;;;;;;23.93;55.39;101368.00;4994155;28;20037;-59
2022/07/20 06:10:20;;;;;;;30.20;22.00;;;;;;;23.97;55.32;101365.25;5011851;28;20022;-59
2022/07/20 06:12:46;;;;;;;28.98;21.38;;;;;;;24.04;55.05;101373.78;5011944;28;20175;-59
2022/07/20 06:15:11;;;;;;;29.63;22.52;;;;;;;24.13;55.05;101381.97;5011825;28;20066;-59
2022/07/20 06:17:39;;;;;;;28.33;20.98;;;;;;;24.23;54.54;101386.09;5011835;28;20044;-60
2022/07/20 06:20:07;;;;;;;30.50;21.60;;;;;;;24.22;54.00;101390.97;5011569;28;20067;-59
2022/07/20 06:22:33;;;;;;;27.48;20.60;;;;;;;24.28;54.31;101411.19;5011598;28;20520;-59
2022/07/20 06:24:58;;;;;;;28.95;21.35;;;;;;;24.32;54.01;101405.59;5011624;28;20054;-60
2022/07/20 06:27:24;;;;;;;29.17;20.67;;;;;;;24.36;53.73;101412.91;5011640;28;20053;-59
2022/07/20 06:29:49;;;;;;;28.73;20.10;;;;;;;24.35;53.67;101416.09;5011801;28;20041;-60
2022/07/20 06:32:14;;;;;;;28.02;20.75;;;;;;;24.39;53.49;101422.63;5011570;28;20026;-60
2022/07/20 06:34:39;;;;;;;29.75;19.48;;;;;;;24.41;53.49;101438.00;5011750;28;20080;-60
2022/07/20 06:37:05;;;;;;;27.70;19.38;;;;;;;24.38;53.40;101429.47;5011387;28;20084;-60
2022/07/20 06:39:30;;;;;;;28.85;19.90;;;;;;;24.41;53.52;101442.84;5011532;28;20072;-60
2022/07/20 06:41:55;;;;;;;29.73;19.10;;;;;;;24.44;53.24;101445.72;5011229;28;20033;-59
2022/07/20 06:44:20;;;;;;;28.02;19.52;;;;;;;24.50;53.46;101449.00;5011557;28;20039;-59
2022/07/20 06:46:46;;;;;;;26.60;18.52;;;;;;;24.53;53.28;101467.22;5011387;28;20048;-58
2022/07/20 06:49:11;;;;;;;29.35;19.25;;;;;;;24.47;53.52;101471.59;5010741;28;20041;-58
2022/07/20 06:51:36;;;;;;;26.30;19.00;;;;;;;24.44;53.54;101478.81;5011362;28;20054;-58
2022/07/20 06:54:02;;;;;;;28.02;17.83;;;;;;;24.39;53.77;101479.97;5011714;28;20104;-59
2022/07/20 06:56:27;;;;;;;26.92;18.67;;;;;;;24.42;53.91;101484.88;5011479;28;20048;-59
2022/07/20 06:58:52;;;;;;;26.30;18.63;;;;;;;24.51;53.82;101500.72;5011839;28;20112;-59
2022/07/20 07:01:17;;;;;;;29.92;18.65;;;;;;;24.53;54.00;101503.97;5011390;28;20328;-59
2022/07/20 07:03:43;;;;;;;27.52;18.35;;;;;;;24.51;54.13;101498.72;5011200;28;20033;-58
2022/07/20 07:06:08;;;;;;;27.35;19.77;;;;;;;24.67;53.72;101494.81;5011388;28;20037;-59
2022/07/20 07:08:33;;;;;;;25.40;18.38;;;;;;;24.83;53.28;101497.44;5011128;28;20443;-59
2022/07/20 07:10:58;;;;;;;27.77;19.30;;;;;;;24.89;53.37;101488.19;5011462;28;20105;-59
2022/07/20 07:13:24;;;;;;;28.52;18.65;;;;;;;25.02;52.52;101476.59;5011384;28;20080;-60
2022/07/20 07:15:49;;;;;;;27.42;19.23;;;;;;;25.10;52.17;101494.44;5011406;28;20148;-59
2022/07/20 07:18:14;;;;;;;27.50;18.98;;;;;;;25.21;51.90;101503.84;4993263;28;20402;-59
2022/07/20 07:20:39;;;;;;;28.25;18.88;;;;;;;25.30;52.10;101512.81;5011197;28;20101;-60
2022/07/20 07:23:05;;;;;;;28.92;18.52;;;;;;;25.38;51.28;101520.16;4993816;28;20034;-60
2022/07/20 07:25:30;;;;;;;26.33;18.70;;;;;;;25.36;51.75;101505.59;5011297;28;20327;-59
2022/07/20 07:27:56;;;;;;;30.35;18.95;;;;;;;25.34;51.66;101501.53;5011174;28;20052;-59
2022/07/20 07:30:21;;;;;;;26.73;18.55;;;;;;;25.49;51.20;101511.78;5011155;28;20022;-60
2022/07/20 07:32:46;;;;;;;26.65;18.85;;;;;;;25.60;50.96;101522.38;4993358;28;20038;-59
2022/07/20 07:35:12;;;;;;;26.13;18.33;;;;;;;25.72;50.29;101521.22;5011022;28;20033;-59
2022/07/20 07:37:38;;;;;;;26.30;18.88;;;;;;;25.68;50.26;101532.53;5011011;28;20405;-60
2022/07/20 07:40:04;;;;;;;26.05;19.80;;;;;;;25.67;50.48;101545.91;5010941;28;20457;-59
2022/07/20 07:42:30;;;;;;;27.67;19.00;;;;;;;25.65;50.62;101553.16;4993402;28;20060;-59
2022/07/20 07:44:55;;;;;;;25.70;18.60;;;;;;;25.71;50.77;101548.75;5010813;28;20030;-60
2022/07/20 07:47:20;;;;;;;26.00;18.20;;;;;;;25.80;50.59;101557.72;5010872;28;20057;-60
2022/07/20 07:49:46;;;;;;;26.38;18.13;;;;;;;25.84;50.06;101563.41;5010995;28;20057;-59
2022/07/20 07:52:11;;;;;;;28.50;20.67;;;;;;;25.82;50.34;101566.66;5010905;28;20052;-59
2022/07/20 07:54:36;;;;;;;28.48;19.63;;;;;;;25.91;50.17;101576.81;5010801;28;20476;-60
2022/07/20 07:57:02;;;;;;;27.88;19.13;;;;;;;25.92;50.50;101587.75;5010738;28;20057;-59
2022/07/20 07:59:28;;;;;;;26.63;19.70;;;;;;;25.95;50.62;101581.31;5011059;28;20104;-59
2022/07/20 08:01:54;;;;;;;28.50;19.20;;;;;;;26.00;49.78;101582.94;5014253;28;20026;-59
2022/07/20 08:04:19;;;;;;;27.27;18.95;;;;;;;26.07;49.54;101582.19;5014627;28;20370;-59
2022/07/20 08:06:44;;;;;;;28.55;19.15;;;;;;;26.06;49.60;101577.72;5014392;28;20053;-58
2022/07/20 08:09:10;;;;;;;26.50;18.83;;;;;;;26.09;50.03;101565.59;5014258;28;20109;-59
2022/07/20 08:11:35;;;;;;;26.80;18.73;;;;;;;26.10;49.73;101550.22;5014542;28;20473;-59
2022/07/20 08:14:02;;;;;;;26.58;18.10;;;;;;;26.12;49.73;101547.81;5014306;28;20423;-59
2022/07/20 08:16:29;;;;;;;26.10;18.40;;;;;;;26.08;49.73;101539.25;5014193;28;20036;-59
2022/07/20 08:18:54;;;;;;;24.55;17.08;;;;;;;26.15;48.39;101527.19;4996312;28;20580;-59
2022/07/20 08:21:19;;;;;;;26.25;17.08;;;;;;;26.22;48.32;101538.53;5013931;28;20061;-59
2022/07/20 08:23:44;;;;;;;24.23;15.65;;;;;;;26.30;47.39;101547.91;4996053;28;20034;-59
2022/07/20 08:26:10;;;;;;;25.35;16.08;;;;;;;26.28;46.75;101538.97;5014186;28;20338;-59
2022/07/20 08:28:35;;;;;;;26.13;15.93;;;;;;;26.24;47.17;101536.13;5013780;28;20446;-59
2022/07/20 08:31:00;;;;;;;24.67;16.00;;;;;;;26.35;47.06;101552.38;5013745;28;20113;-59
2022/07/20 08:33:25;;;;;;;23.67;15.93;;;;;;;26.46;46.64;101551.19;5013679;28;20375;-59
2022/07/20 08:35:51;;;;;;;24.20;15.05;;;;;;;26.58;46.89;101563.41;5013860;28;20061;-59
2022/07/20 08:38:16;;;;;;;25.55;15.88;;;;;;;26.66;46.02;101567.06;5013813;28;20053;-61
2022/07/20 08:40:42;;;;;;;23.95;15.55;;;;;;;26.68;46.54;101561.81;5013555;28;20327;-59
2022/07/20 08:43:07;;;;;;;22.92;15.02;;;;;;;26.73;45.36;101558.59;5013302;28;20028;-61
2022/07/20 08:45:34;;;;;;;25.67;16.20;;;;;;;26.77;44.95;101565.09;5013579;28;20034;-60
2022/07/20 08:48:03;;;;;;;23.70;15.48;;;;;;;26.74;45.45;101572.38;5013355;28;20026;-60
2022/07/20 08:50:31;;;;;;;25.05;15.77;;;;;;;26.81;45.37;101576.47;5013526;28;20029;-59
2022/07/20 08:52:57;;;;;;;24.40;15.82;;;;;;;26.79;45.35;101574.03;5013761;28;20102;-59
2022/07/20 08:55:23;;;;;;;26.83;16.48;;;;;;;26.71;45.57;101578.03;5014035;28;20152;-59
2022/07/20 08:57:49;;;;;;;24.02;15.27;;;;;;;26.75;46.06;101585.34;5014283;28;20042;-59
2022/07/20 09:00:15;;;;;;;23.52;15.32;;;;;;;26.85;45.57;101575.25;5014822;28;20393;-60
2022/07/20 09:03:02;;;;;;;24.15;15.45;;;;;;;27.00;45.36;101546.91;4997634;28;20415;-59
2022/07/20 09:05:32;;;;;;;24.88;15.98;;;;;;;27.09;45.22;101533.91;4997345;28;20056;-59
2022/07/20 09:07:58;;;;;;;24.65;16.13;;;;;;;27.26;44.36;101528.66;5015197;28;20034;-60
2022/07/20 09:10:33;;;;;;;24.08;15.05;;;;;;;27.42;44.35;101518.91;5014388;28;20034;-59
2022/07/20 09:13:13;;;;;;;24.52;15.65;;;;;;;27.43;43.88;101524.22;5013801;28;20025;-59
2022/07/20 09:15:44;;;;;;;24.40;16.27;;;;;;;27.37;44.04;101546.50;5014806;28;20034;-60
2022/07/20 09:18:22;;;;;;;23.60;15.82;;;;;;;27.59;44.15;101560.75;4996731;28;20355;-59
2022/07/20 09:20:54;;;;;;;25.42;15.77;;;;;;;27.88;42.78;101591.97;5013836;28;20018;-58
2022/07/20 09:23:27;;;;;;;25.85;16.13;;;;;;;27.93;42.75;101602.91;5013640;28;20140;-59
2022/07/20 09:25:56;;;;;;;23.65;16.20;;;;;;;28.06;42.31;101602.50;4995593;28;20108;-59
2022/07/20 09:28:23;;;;;;;21.98;14.73;;;;;;;28.14;41.50;101606.97;5013527;28;20029;-59
2022/07/20 09:30:56;;;;;;;23.30;15.20;;;;;;;28.07;41.80;101604.94;5013333;28;20153;-59
2022/07/20 09:33:29;;;;;;;24.55;15.75;;;;;;;28.05;42.04;101601.69;5013556;28;20026;-58
2022/07/20 09:35:56;;;;;;;24.13;15.93;;;;;;;28.14;41.99;101639.06;5014038;28;20502;-60
2022/07/20 09:38:33;;;;;;;26.17;16.27;;;;;;;28.20;41.87;101613.84;5012988;28;20084;-59
2022/07/20 09:40:59;;;;;;;25.15;15.82;;;;;;;28.25;41.98;101624.00;4995479;28;20563;-60
2022/07/20 09:43:31;;;;;;;25.48;15.93;;;;;;;28.38;41.65;101632.91;5013110;28;20466;-59
2022/07/20 09:46:18;;;;;;;24.55;16.27;;;;;;;28.45;41.44;101636.53;5012953;28;20034;-60
2022/07/20 09:48:46;;;;;;;23.08;15.65;;;;;;;28.35;41.58;101625.19;5012284;28;20038;-59
2022/07/20 09:51:31;;;;;;;22.52;15.43;;;;;;;28.42;42.03;101619.47;5012656;28;20423;-59
2022/07/20 09:54:02;;;;;;;24.65;15.93;;;;;;;28.53;41.88;101613.75;5012436;28;20026;-60
2022/07/20 09:56:29;;;;;;;23.52;15.90;;;;;;;28.45;41.79;101607.28;5012233;28;20091;-60
2022/07/20 09:58:56;;;;;;;23.65;15.57;;;;;;;28.41;41.33;101610.13;5012271;28;20030;-59
2022/07/20 10:01:25;;;;;;;23.77;15.75;;;;;;;28.36;41.36;101593.47;5012550;28;20030;-60
2022/07/20 10:03:53;;;;;;;23.45;16.05;;;;;;;28.29;41.60;101582.13;5011899;28;20100;-60
2022/07/20 10:06:20;;;;;;;24.60;15.38;;;;;;;28.22;41.82;101587.84;5012189;28;20048;-60
2022/07/20 10:08:47;;;;;;;23.10;15.50;;;;;;;28.10;42.13;101589.91;5012154;28;20021;-60
2022/07/20 10:11:13;;;;;;;25.75;15.90;;;;;;;28.01;42.36;101609.41;5011954;28;20022;-60
2022/07/20 10:13:40;;;;;;;23.42;15.32;;;;;;;27.89;41.79;101629.72;5012047;28;20069;-60
2022/07/20 10:16:10;;;;;;;22.70;14.82;;;;;;;27.78;41.84;101652.47;5012358;28;20042;-60
2022/07/20 10:18:35;;;;;;;22.30;14.40;;;;;;;27.77;42.61;101640.31;5011913;28;20069;-61
2022/07/20 10:21:21;;;;;;;21.75;14.50;;;;;;;27.82;42.38;101650.47;4994395;28;20030;-60
2022/07/20 10:24:16;;;;;;;23.48;14.65;;;;;;;28.08;41.73;101645.59;5010630;28;20049;-60
2022/07/20 10:26:43;;;;;;;21.77;13.07;;;;;;;28.21;41.01;101638.22;5011776;28;20029;-60
2022/07/20 10:29:09;;;;;;;22.08;14.02;;;;;;;28.41;41.26;101641.44;5011757;28;20121;-60
2022/07/20 10:31:48;;;;;;;22.50;13.77;;;;;;;28.62;41.07;101649.09;5011817;28;20029;-60
2022/07/20 10:34:37;;;;;;;22.83;15.90;;;;;;;28.56;41.37;101635.69;5011672;28;20017;-60
2022/07/20 10:37:23;;;;;;;23.20;15.60;;;;;;;28.53;41.84;101631.63;5011818;28;20129;-60
2022/07/20 10:40:10;;;;;;;24.25;15.02;;;;;;;28.43;41.58;101632.47;5011823;28;20088;-61
2022/07/20 10:43:04;;;;;;;22.80;15.20;;;;;;;28.47;41.70;101628.41;5011860;28;20018;-59
2022/07/20 10:45:31;;;;;;;22.60;13.57;;;;;;;28.72;40.51;101621.00;5003317;28;20125;-60
2022/07/20 10:48:16;;;;;;;21.17;12.25;;;;;;;28.90;39.73;101621.72;5011676;28;20026;-59
2022/07/20 10:50:56;;;;;;;21.92;13.05;;;;;;;29.13;39.33;101613.84;5011399;28;20026;-59
2022/07/20 10:53:21;;;;;;;21.35;12.15;;;;;;;29.29;39.01;101614.13;5011708;28;20033;-60
2022/07/20 10:55:50;;;;;;;20.35;13.52;;;;;;;29.46;38.54;101594.53;4993836;28;20034;-60
2022/07/20 10:58:27;;;;;;;21.63;13.30;;;;;;;29.63;38.26;101592.72;5011707;28;20381;-60
2022/07/20 11:00:57;;;;;;;23.58;14.10;;;;;;;29.68;38.47;101592.28;5011347;28;20034;-59
2022/07/20 11:03:49;;;;;;;20.52;13.20;;;;;;;29.95;38.02;101615.25;4993455;28;20034;-60
2022/07/20 11:06:23;;;;;;;21.42;13.40;;;;;;;29.86;38.00;101609.19;5008479;28;20406;-60
2022/07/20 11:08:53;;;;;;;22.08;13.75;;;;;;;29.82;37.91;101619.84;5011766;28;20124;-60
2022/07/20 11:11:22;;;;;;;21.70;13.35;;;;;;;29.87;37.99;101620.22;5011550;28;20082;-60
2022/07/20 11:13:48;;;;;;;23.23;13.15;;;;;;;30.06;38.37;101632.28;5011265;28;20026;-59